SAS281 ESSA-LSZH
Flight info
| Callsign | SAS281 |
|---|---|
| Flight time | N/A |
| Altitude | 30000 |
| Route | NOSLI6C NOSLI N850 ABAMA DCT MAKEL DCT OTMON DCT SWALM DCT OMOGI T721 RILAX RILAX2A |
| Aircraft | F28/M-SDFIRWY/H |
Departure
| Time | 2026-05-05 17:32 |
|---|---|
| Airport | Stockholm-Arlanda Airport (ESSA) |
Arrival
| Time | N/A |
|---|---|
| Airport | Zürich Airport (LSZH) |
| Time | Latitude | Longitude | Altitude | Speed | Heading |
|---|---|---|---|---|---|
| 2026-05-05 17:01 | 59.65200 | 17.93023 | 109 ft | 0 kts | 71° |
| 2026-05-05 17:20 | 59.65193 | 17.92989 | 107 ft | 4 kts | 62° |
| 2026-05-05 17:20 | 59.65177 | 17.92946 | 108 ft | 4 kts | 44° |
| 2026-05-05 17:20 | 59.65162 | 17.92922 | 107 ft | 1 kts | 32° |
| 2026-05-05 17:20 | 59.65183 | 17.92920 | 107 ft | 4 kts | 329° |
| 2026-05-05 17:21 | 59.65202 | 17.92884 | 109 ft | 3 kts | 312° |
| 2026-05-05 17:21 | 59.65204 | 17.92880 | 109 ft | 0 kts | 312° |
| 2026-05-05 17:24 | 59.65215 | 17.92850 | 107 ft | 5 kts | 296° |
| 2026-05-05 17:25 | 59.65228 | 17.92779 | 109 ft | 7 kts | 289° |
| 2026-05-05 17:25 | 59.65240 | 17.92709 | 109 ft | 9 kts | 289° |
| 2026-05-05 17:25 | 59.65268 | 17.92542 | 109 ft | 9 kts | 289° |
| 2026-05-05 17:25 | 59.65258 | 17.92427 | 109 ft | 11 kts | 219° |
| 2026-05-05 17:26 | 59.65165 | 17.92371 | 109 ft | 15 kts | 189° |
| 2026-05-05 17:26 | 59.65065 | 17.92331 | 109 ft | 14 kts | 190° |
| 2026-05-05 17:26 | 59.64975 | 17.92302 | 109 ft | 13 kts | 191° |
| 2026-05-05 17:26 | 59.64893 | 17.92271 | 109 ft | 11 kts | 191° |
| 2026-05-05 17:27 | 59.64814 | 17.92242 | 109 ft | 12 kts | 190° |
| 2026-05-05 17:27 | 59.64729 | 17.92211 | 109 ft | 13 kts | 190° |
| 2026-05-05 17:27 | 59.64636 | 17.92178 | 109 ft | 14 kts | 190° |
| 2026-05-05 17:27 | 59.64540 | 17.92144 | 110 ft | 14 kts | 190° |
| 2026-05-05 17:28 | 59.64440 | 17.92109 | 110 ft | 14 kts | 191° |
| 2026-05-05 17:28 | 59.64348 | 17.92059 | 111 ft | 12 kts | 227° |
| 2026-05-05 17:28 | 59.64313 | 17.91901 | 110 ft | 12 kts | 207° |
| 2026-05-05 17:28 | 59.64234 | 17.91867 | 111 ft | 12 kts | 190° |
| 2026-05-05 17:29 | 59.64149 | 17.91836 | 110 ft | 13 kts | 190° |
| 2026-05-05 17:29 | 59.64057 | 17.91802 | 111 ft | 14 kts | 190° |
| 2026-05-05 17:29 | 59.63951 | 17.91765 | 108 ft | 17 kts | 190° |
| 2026-05-05 17:29 | 59.63840 | 17.91703 | 105 ft | 17 kts | 216° |
| 2026-05-05 17:30 | 59.63752 | 17.91557 | 104 ft | 16 kts | 220° |
| 2026-05-05 17:30 | 59.63742 | 17.91392 | 107 ft | 11 kts | 310° |
| 2026-05-05 17:30 | 59.63802 | 17.91351 | 107 ft | 9 kts | 9° |
| 2026-05-05 17:30 | 59.63820 | 17.91358 | 107 ft | 0 kts | 11° |
| 2026-05-05 17:31 | 59.63882 | 17.91380 | 105 ft | 34 kts | 10° |
| 2026-05-05 17:31 | 59.64327 | 17.91544 | 105 ft | 94 kts | 9° |
| 2026-05-05 17:31 | 59.65159 | 17.91834 | 152 ft | 145 kts | 11° |
| 2026-05-05 17:31 | 59.66290 | 17.92229 | 479 ft | 183 kts | 11° |
| 2026-05-05 17:32 | 59.67638 | 17.92761 | 955 ft | 210 kts | 10° |
| 2026-05-05 17:32 | 59.69166 | 17.93351 | 1503 ft | 234 kts | 8° |
| 2026-05-05 17:32 | 59.70789 | 17.93443 | 2172 ft | 234 kts | 344° |
| 2026-05-05 17:32 | 59.72125 | 17.91792 | 2839 ft | 229 kts | 303° |
| 2026-05-05 17:33 | 59.72419 | 17.88817 | 3232 ft | 228 kts | 258° |
| 2026-05-05 17:33 | 59.71567 | 17.86124 | 3297 ft | 240 kts | 227° |
| 2026-05-05 17:33 | 59.70348 | 17.83871 | 3513 ft | 237 kts | 225° |
| 2026-05-05 17:33 | 59.69309 | 17.81415 | 3832 ft | 236 kts | 248° |
| 2026-05-05 17:34 | 59.68853 | 17.78268 | 4201 ft | 241 kts | 260° |
| 2026-05-05 17:34 | 59.68436 | 17.75105 | 4869 ft | 237 kts | 255° |
| 2026-05-05 17:34 | 59.67940 | 17.72016 | 5369 ft | 240 kts | 254° |
| 2026-05-05 17:34 | 59.67417 | 17.68865 | 5910 ft | 242 kts | 253° |
| 2026-05-05 17:35 | 59.66811 | 17.65750 | 6451 ft | 246 kts | 240° |
| 2026-05-05 17:35 | 59.65548 | 17.63461 | 7003 ft | 254 kts | 209° |
| 2026-05-05 17:35 | 59.63910 | 17.62108 | 7545 ft | 255 kts | 212° |
| 2026-05-05 17:35 | 59.62414 | 17.60227 | 8110 ft | 255 kts | 217° |
| 2026-05-05 17:36 | 59.60957 | 17.58215 | 8698 ft | 257 kts | 219° |
| 2026-05-05 17:36 | 59.59500 | 17.56153 | 9265 ft | 259 kts | 219° |
| 2026-05-05 17:36 | 59.58029 | 17.54086 | 9837 ft | 260 kts | 218° |
| 2026-05-05 17:36 | 59.56543 | 17.52026 | 10369 ft | 261 kts | 219° |
| 2026-05-05 17:37 | 59.55042 | 17.50001 | 10953 ft | 263 kts | 219° |
| 2026-05-05 17:37 | 59.53445 | 17.47866 | 10882 ft | 290 kts | 218° |
| 2026-05-05 17:37 | 59.51703 | 17.45535 | 10854 ft | 315 kts | 218° |
| 2026-05-05 17:37 | 59.49860 | 17.43111 | 11465 ft | 316 kts | 218° |
| 2026-05-05 17:38 | 59.48021 | 17.40745 | 12148 ft | 317 kts | 218° |
| 2026-05-05 17:38 | 59.46168 | 17.38367 | 12762 ft | 319 kts | 218° |
| 2026-05-05 17:38 | 59.44299 | 17.35984 | 13379 ft | 321 kts | 218° |
| 2026-05-05 17:38 | 59.42424 | 17.33591 | 13948 ft | 322 kts | 219° |
| 2026-05-05 17:39 | 59.40548 | 17.31207 | 14567 ft | 320 kts | 219° |
| 2026-05-05 17:39 | 59.38712 | 17.28882 | 15195 ft | 317 kts | 220° |
| 2026-05-05 17:39 | 59.36866 | 17.26530 | 15806 ft | 316 kts | 220° |
| 2026-05-05 17:39 | 59.35023 | 17.24202 | 16399 ft | 314 kts | 220° |
| 2026-05-05 17:40 | 59.33189 | 17.21887 | 16986 ft | 313 kts | 221° |
| 2026-05-05 17:40 | 59.31342 | 17.19545 | 17447 ft | 313 kts | 221° |
| 2026-05-05 17:40 | 59.29535 | 17.17240 | 17885 ft | 315 kts | 221° |
| 2026-05-05 17:40 | 59.27697 | 17.14894 | 18331 ft | 315 kts | 221° |
| 2026-05-05 17:41 | 59.25853 | 17.12541 | 18704 ft | 317 kts | 221° |
| 2026-05-05 17:41 | 59.23995 | 17.10174 | 19050 ft | 319 kts | 221° |
| 2026-05-05 17:41 | 59.22130 | 17.07795 | 19403 ft | 321 kts | 221° |
| 2026-05-05 17:41 | 59.20254 | 17.05400 | 19754 ft | 323 kts | 221° |
| 2026-05-05 17:42 | 59.18367 | 17.02995 | 20077 ft | 325 kts | 221° |
| 2026-05-05 17:42 | 59.16468 | 17.00575 | 20406 ft | 327 kts | 221° |
| 2026-05-05 17:42 | 59.14559 | 16.98147 | 20730 ft | 328 kts | 221° |
| 2026-05-05 17:42 | 59.12636 | 16.95723 | 21040 ft | 330 kts | 221° |
| 2026-05-05 17:43 | 59.10703 | 16.93277 | 21329 ft | 332 kts | 221° |
| 2026-05-05 17:43 | 59.08758 | 16.90834 | 21618 ft | 334 kts | 220° |
| 2026-05-05 17:43 | 59.06803 | 16.88378 | 21856 ft | 335 kts | 220° |
| 2026-05-05 17:43 | 59.04827 | 16.85902 | 22086 ft | 339 kts | 220° |
| 2026-05-05 17:44 | 59.02835 | 16.83433 | 22350 ft | 341 kts | 220° |
| 2026-05-05 17:44 | 59.00838 | 16.80945 | 22630 ft | 342 kts | 220° |
| 2026-05-05 17:44 | 58.98838 | 16.78438 | 22901 ft | 343 kts | 220° |
| 2026-05-05 17:44 | 58.96850 | 16.75965 | 23163 ft | 344 kts | 220° |
| 2026-05-05 17:45 | 58.94831 | 16.73443 | 23418 ft | 346 kts | 220° |
| 2026-05-05 17:45 | 58.92811 | 16.70911 | 23649 ft | 347 kts | 220° |
| 2026-05-05 17:45 | 58.90776 | 16.68354 | 23839 ft | 349 kts | 220° |
| 2026-05-05 17:45 | 58.88737 | 16.65804 | 24051 ft | 350 kts | 220° |
| 2026-05-05 17:46 | 58.86684 | 16.63266 | 24255 ft | 351 kts | 220° |
| 2026-05-05 17:46 | 58.84626 | 16.60723 | 24440 ft | 352 kts | 220° |
| 2026-05-05 17:46 | 58.82560 | 16.58170 | 24638 ft | 353 kts | 220° |
| 2026-05-05 17:46 | 58.80489 | 16.55616 | 24726 ft | 355 kts | 220° |
| 2026-05-05 17:47 | 58.78403 | 16.53046 | 24888 ft | 356 kts | 220° |
| 2026-05-05 17:47 | 58.76310 | 16.50480 | 25073 ft | 357 kts | 220° |
| 2026-05-05 17:47 | 58.74204 | 16.47904 | 25237 ft | 358 kts | 220° |
| 2026-05-05 17:47 | 58.72096 | 16.45332 | 25396 ft | 359 kts | 220° |
| 2026-05-05 17:48 | 58.69988 | 16.42758 | 25577 ft | 360 kts | 220° |
| 2026-05-05 17:48 | 58.67874 | 16.40174 | 25744 ft | 360 kts | 220° |
| 2026-05-05 17:48 | 58.65778 | 16.37617 | 25900 ft | 361 kts | 220° |
| 2026-05-05 17:48 | 58.63649 | 16.35021 | 26054 ft | 362 kts | 219° |
| 2026-05-05 17:49 | 58.61517 | 16.32423 | 26192 ft | 363 kts | 219° |
| 2026-05-05 17:49 | 58.59380 | 16.29822 | 26341 ft | 364 kts | 219° |
| 2026-05-05 17:49 | 58.57241 | 16.27217 | 26487 ft | 365 kts | 219° |
| 2026-05-05 17:49 | 58.55091 | 16.24596 | 26511 ft | 368 kts | 219° |
| 2026-05-05 17:50 | 58.52932 | 16.21955 | 26637 ft | 369 kts | 219° |
| 2026-05-05 17:50 | 58.50772 | 16.19310 | 26779 ft | 369 kts | 219° |
| 2026-05-05 17:50 | 58.48604 | 16.16655 | 26914 ft | 370 kts | 219° |
| 2026-05-05 17:50 | 58.46435 | 16.14000 | 27042 ft | 371 kts | 219° |
| 2026-05-05 17:51 | 58.44262 | 16.11347 | 27174 ft | 372 kts | 219° |
| 2026-05-05 17:51 | 58.42067 | 16.08722 | 27300 ft | 373 kts | 219° |
| 2026-05-05 17:51 | 58.39870 | 16.06077 | 27423 ft | 373 kts | 219° |
| 2026-05-05 17:51 | 58.37666 | 16.03438 | 27544 ft | 374 kts | 219° |
| 2026-05-05 17:52 | 58.35461 | 16.00795 | 27663 ft | 375 kts | 219° |
| 2026-05-05 17:52 | 58.33249 | 15.98157 | 27773 ft | 375 kts | 219° |
| 2026-05-05 17:52 | 58.31034 | 15.95512 | 27787 ft | 377 kts | 219° |
| 2026-05-05 17:52 | 58.28801 | 15.92853 | 27810 ft | 380 kts | 218° |
| 2026-05-05 17:53 | 58.26557 | 15.90189 | 27903 ft | 381 kts | 218° |
| 2026-05-05 17:53 | 58.24304 | 15.87518 | 28009 ft | 382 kts | 218° |
| 2026-05-05 17:53 | 58.22049 | 15.84851 | 28117 ft | 382 kts | 218° |
| 2026-05-05 17:53 | 58.19790 | 15.82179 | 28220 ft | 382 kts | 218° |
| 2026-05-05 17:54 | 58.17561 | 15.79544 | 28311 ft | 383 kts | 218° |
| 2026-05-05 17:54 | 58.13037 | 15.74211 | 28640 ft | 381 kts | 218° |
| 2026-05-05 17:54 | 58.10790 | 15.71572 | 28859 ft | 379 kts | 218° |
| 2026-05-05 17:55 | 58.08558 | 15.68960 | 29072 ft | 376 kts | 218° |
| 2026-05-05 17:55 | 58.06356 | 15.66368 | 29402 ft | 370 kts | 218° |
| 2026-05-05 17:55 | 58.04183 | 15.63808 | 29726 ft | 365 kts | 218° |
| 2026-05-05 17:55 | 58.02024 | 15.61264 | 29869 ft | 366 kts | 218° |
| 2026-05-05 17:56 | 57.99856 | 15.58710 | 29903 ft | 369 kts | 218° |
| 2026-05-05 17:56 | 57.95466 | 15.53536 | 29897 ft | 375 kts | 218° |
| 2026-05-05 17:57 | 57.91018 | 15.48283 | 29909 ft | 380 kts | 218° |
| 2026-05-05 17:57 | 57.86516 | 15.42961 | 29912 ft | 384 kts | 218° |
| 2026-05-05 17:58 | 57.82009 | 15.37640 | 29908 ft | 381 kts | 218° |
| 2026-05-05 17:58 | 57.77525 | 15.32375 | 29929 ft | 379 kts | 219° |
| 2026-05-05 17:59 | 57.73077 | 15.27100 | 29901 ft | 378 kts | 219° |
| 2026-05-05 17:59 | 57.68633 | 15.21929 | 29903 ft | 379 kts | 218° |
| 2026-05-05 18:00 | 57.64160 | 15.16721 | 29900 ft | 379 kts | 218° |
| 2026-05-05 18:00 | 57.59682 | 15.11528 | 29901 ft | 379 kts | 218° |
| 2026-05-05 18:01 | 57.55183 | 15.06321 | 29877 ft | 382 kts | 218° |
| 2026-05-05 18:01 | 57.50645 | 15.01059 | 29900 ft | 387 kts | 218° |
| 2026-05-05 18:02 | 57.46056 | 14.95740 | 29903 ft | 389 kts | 218° |
| 2026-05-05 18:02 | 57.41466 | 14.90430 | 29899 ft | 387 kts | 218° |
| 2026-05-05 18:03 | 57.36910 | 14.85228 | 29898 ft | 382 kts | 218° |
| 2026-05-05 18:03 | 57.32427 | 14.80102 | 29854 ft | 380 kts | 218° |
| 2026-05-05 18:04 | 57.27914 | 14.75008 | 29889 ft | 379 kts | 217° |
| 2026-05-05 18:04 | 57.23412 | 14.69898 | 29896 ft | 380 kts | 217° |
| 2026-05-05 18:05 | 57.18891 | 14.64797 | 29901 ft | 381 kts | 217° |
| 2026-05-05 18:05 | 57.15121 | 14.60550 | 29906 ft | 382 kts | 217° |
| 2026-05-05 18:06 | 57.10572 | 14.55438 | 29917 ft | 383 kts | 217° |
| 2026-05-05 18:06 | 57.05265 | 14.49509 | 29895 ft | 384 kts | 217° |
| 2026-05-05 18:07 | 57.01443 | 14.45242 | 29908 ft | 384 kts | 217° |
| 2026-05-05 18:07 | 56.96871 | 14.40146 | 29909 ft | 385 kts | 217° |
| 2026-05-05 18:08 | 56.92287 | 14.35057 | 29894 ft | 386 kts | 217° |
| 2026-05-05 18:08 | 56.87694 | 14.29975 | 29894 ft | 386 kts | 217° |
| 2026-05-05 18:09 | 56.83127 | 14.24931 | 29859 ft | 386 kts | 217° |
| 2026-05-05 18:09 | 56.78524 | 14.19875 | 29903 ft | 386 kts | 217° |
| 2026-05-05 18:10 | 56.73919 | 14.14820 | 29906 ft | 386 kts | 217° |
| 2026-05-05 18:10 | 56.69304 | 14.09771 | 29907 ft | 387 kts | 217° |
| 2026-05-05 18:11 | 56.64684 | 14.04733 | 29915 ft | 387 kts | 217° |
| 2026-05-05 18:11 | 56.60097 | 13.99735 | 29914 ft | 386 kts | 217° |
| 2026-05-05 18:12 | 56.55500 | 13.94734 | 29905 ft | 384 kts | 217° |
| 2026-05-05 18:12 | 56.50914 | 13.89754 | 29907 ft | 383 kts | 217° |
| 2026-05-05 18:13 | 56.46344 | 13.84805 | 29916 ft | 382 kts | 216° |
| 2026-05-05 18:13 | 56.41792 | 13.79882 | 29914 ft | 381 kts | 216° |
| 2026-05-05 18:14 | 56.37237 | 13.74969 | 29919 ft | 381 kts | 216° |
| 2026-05-05 18:14 | 56.32692 | 13.70077 | 29901 ft | 380 kts | 216° |
| 2026-05-05 18:15 | 56.28153 | 13.65252 | 29918 ft | 382 kts | 216° |
| 2026-05-05 18:15 | 56.23563 | 13.60409 | 29926 ft | 383 kts | 215° |
| 2026-05-05 18:16 | 56.18961 | 13.55534 | 29930 ft | 385 kts | 215° |
| 2026-05-05 18:16 | 56.14341 | 13.50653 | 29935 ft | 386 kts | 215° |
| 2026-05-05 18:17 | 56.09707 | 13.45763 | 29913 ft | 387 kts | 215° |
| 2026-05-05 18:17 | 56.05087 | 13.40814 | 29934 ft | 387 kts | 215° |
| 2026-05-05 18:18 | 56.00428 | 13.35928 | 29939 ft | 389 kts | 214° |
| 2026-05-05 18:18 | 55.95750 | 13.31058 | 29936 ft | 390 kts | 214° |
| 2026-05-05 18:19 | 55.91060 | 13.26170 | 29929 ft | 390 kts | 214° |
| 2026-05-05 18:19 | 55.86370 | 13.21287 | 29893 ft | 390 kts | 214° |
| 2026-05-05 18:20 | 55.81685 | 13.16429 | 29925 ft | 389 kts | 214° |
| 2026-05-05 18:20 | 55.77001 | 13.11596 | 29924 ft | 389 kts | 214° |
| 2026-05-05 18:21 | 55.72354 | 13.06814 | 29928 ft | 389 kts | 214° |
| 2026-05-05 18:21 | 55.67678 | 13.01997 | 29928 ft | 388 kts | 214° |
| 2026-05-05 18:22 | 55.63002 | 12.97195 | 29933 ft | 388 kts | 214° |
| 2026-05-05 18:22 | 55.58337 | 12.92410 | 29929 ft | 387 kts | 215° |
| 2026-05-05 18:23 | 55.53694 | 12.87610 | 29920 ft | 387 kts | 214° |
| 2026-05-05 18:23 | 55.49083 | 12.82939 | 29918 ft | 386 kts | 214° |
| 2026-05-05 18:24 | 55.44424 | 12.78202 | 29924 ft | 386 kts | 214° |
| 2026-05-05 18:24 | 55.39771 | 12.73488 | 29921 ft | 386 kts | 214° |
| 2026-05-05 18:25 | 55.35113 | 12.68791 | 29923 ft | 385 kts | 214° |
| 2026-05-05 18:25 | 55.30488 | 12.64135 | 29921 ft | 385 kts | 214° |
| 2026-05-05 18:26 | 55.25841 | 12.59469 | 29925 ft | 385 kts | 214° |
| 2026-05-05 18:26 | 55.21191 | 12.54821 | 29923 ft | 385 kts | 214° |
| 2026-05-05 18:27 | 55.16541 | 12.50174 | 29915 ft | 384 kts | 214° |
| 2026-05-05 18:27 | 55.11890 | 12.45551 | 29905 ft | 384 kts | 215° |
| 2026-05-05 18:28 | 55.04836 | 12.38936 | 29923 ft | 387 kts | 208° |
| 2026-05-05 18:28 | 54.99795 | 12.35586 | 29924 ft | 388 kts | 206° |
| 2026-05-05 18:29 | 54.94758 | 12.32260 | 29914 ft | 387 kts | 207° |
| 2026-05-05 18:29 | 54.89770 | 12.28768 | 29875 ft | 386 kts | 208° |
| 2026-05-05 18:30 | 54.84821 | 12.25225 | 29914 ft | 384 kts | 208° |
| 2026-05-05 18:30 | 54.79892 | 12.21692 | 29918 ft | 383 kts | 208° |
| 2026-05-05 18:31 | 54.74973 | 12.18170 | 29917 ft | 382 kts | 208° |
| 2026-05-05 18:31 | 54.70084 | 12.14679 | 29916 ft | 382 kts | 208° |
| 2026-05-05 18:32 | 54.65160 | 12.11206 | 29880 ft | 381 kts | 208° |
| 2026-05-05 18:32 | 54.60246 | 12.07753 | 29909 ft | 381 kts | 207° |
| 2026-05-05 18:33 | 54.55337 | 12.04320 | 29917 ft | 380 kts | 207° |
| 2026-05-05 18:33 | 54.50434 | 12.00902 | 29913 ft | 380 kts | 207° |
| 2026-05-05 18:34 | 54.45527 | 11.97493 | 29913 ft | 380 kts | 207° |
| 2026-05-05 18:34 | 54.40623 | 11.94092 | 29893 ft | 380 kts | 207° |
| 2026-05-05 18:35 | 54.35726 | 11.90650 | 29906 ft | 380 kts | 207° |
| 2026-05-05 18:35 | 54.30823 | 11.87187 | 29911 ft | 382 kts | 207° |
| 2026-05-05 18:36 | 54.25922 | 11.83788 | 29910 ft | 383 kts | 207° |
| 2026-05-05 18:36 | 54.20964 | 11.80368 | 29910 ft | 384 kts | 207° |
| 2026-05-05 18:37 | 54.15998 | 11.76938 | 29887 ft | 385 kts | 207° |
| 2026-05-05 18:37 | 54.11026 | 11.73508 | 29913 ft | 386 kts | 206° |
| 2026-05-05 18:38 | 54.06033 | 11.70077 | 29911 ft | 387 kts | 206° |
| 2026-05-05 18:38 | 54.01025 | 11.66639 | 29908 ft | 388 kts | 206° |
| 2026-05-05 18:39 | 53.96040 | 11.63224 | 29906 ft | 389 kts | 206° |
| 2026-05-05 18:39 | 53.90977 | 11.59777 | 29903 ft | 390 kts | 206° |
| 2026-05-05 18:40 | 53.85950 | 11.56388 | 29904 ft | 391 kts | 205° |
| 2026-05-05 18:40 | 53.80890 | 11.52989 | 29903 ft | 392 kts | 205° |
| 2026-05-05 18:41 | 53.75817 | 11.49586 | 29895 ft | 392 kts | 205° |
| 2026-05-05 18:41 | 53.70735 | 11.46182 | 29895 ft | 393 kts | 205° |
| 2026-05-05 18:42 | 53.65655 | 11.42753 | 29893 ft | 393 kts | 205° |
| 2026-05-05 18:42 | 53.60581 | 11.39301 | 29899 ft | 393 kts | 205° |
| 2026-05-05 18:43 | 53.55479 | 11.35910 | 29896 ft | 394 kts | 205° |
| 2026-05-05 18:43 | 53.50378 | 11.32518 | 29894 ft | 395 kts | 205° |
| 2026-05-05 18:44 | 53.45267 | 11.29133 | 29871 ft | 395 kts | 204° |
| 2026-05-05 18:44 | 53.40161 | 11.25736 | 29885 ft | 395 kts | 204° |
| 2026-05-05 18:45 | 53.35076 | 11.22355 | 29892 ft | 396 kts | 204° |
| 2026-05-05 18:45 | 53.29955 | 11.18953 | 29886 ft | 396 kts | 204° |
| 2026-05-05 18:46 | 53.24829 | 11.15581 | 29888 ft | 396 kts | 204° |
| 2026-05-05 18:46 | 53.19687 | 11.12208 | 29875 ft | 397 kts | 204° |
| 2026-05-05 18:47 | 53.14542 | 11.08867 | 29882 ft | 397 kts | 203° |
| 2026-05-05 18:47 | 53.09387 | 11.05542 | 29883 ft | 397 kts | 203° |
| 2026-05-05 18:48 | 53.04219 | 11.02217 | 29891 ft | 398 kts | 203° |
| 2026-05-05 18:48 | 52.99098 | 10.98884 | 29885 ft | 398 kts | 203° |
| 2026-05-05 18:49 | 52.93932 | 10.95550 | 29879 ft | 398 kts | 203° |
| 2026-05-05 18:49 | 52.88759 | 10.92214 | 29880 ft | 399 kts | 203° |
| 2026-05-05 18:50 | 52.83589 | 10.88889 | 29877 ft | 399 kts | 203° |
| 2026-05-05 18:50 | 52.78413 | 10.85555 | 29877 ft | 399 kts | 203° |
| 2026-05-05 18:51 | 52.73231 | 10.82243 | 29866 ft | 399 kts | 203° |
| 2026-05-05 18:51 | 52.68061 | 10.78920 | 29870 ft | 399 kts | 203° |
| 2026-05-05 18:52 | 52.62926 | 10.75618 | 29870 ft | 399 kts | 203° |
| 2026-05-05 18:52 | 52.57761 | 10.72299 | 29867 ft | 399 kts | 203° |
| 2026-05-05 18:53 | 52.52590 | 10.68985 | 29860 ft | 399 kts | 203° |
| 2026-05-05 18:53 | 52.47408 | 10.65741 | 29856 ft | 399 kts | 202° |
| 2026-05-05 18:54 | 52.43089 | 10.63060 | 29853 ft | 399 kts | 202° |
| 2026-05-05 18:54 | 52.37907 | 10.59793 | 29857 ft | 399 kts | 202° |
| 2026-05-05 18:55 | 52.32720 | 10.56536 | 29855 ft | 399 kts | 202° |
| 2026-05-05 18:55 | 52.27535 | 10.53286 | 29848 ft | 398 kts | 202° |
| 2026-05-05 18:56 | 52.22371 | 10.50013 | 29853 ft | 397 kts | 202° |
| 2026-05-05 18:56 | 52.17246 | 10.46809 | 29848 ft | 396 kts | 201° |
| 2026-05-05 18:57 | 52.12094 | 10.43609 | 29846 ft | 396 kts | 201° |
| 2026-05-05 18:57 | 52.06947 | 10.40421 | 29839 ft | 395 kts | 201° |
| 2026-05-05 18:58 | 52.01816 | 10.37213 | 29825 ft | 395 kts | 201° |
| 2026-05-05 18:58 | 51.96682 | 10.34036 | 29824 ft | 394 kts | 201° |
| 2026-05-05 18:59 | 51.91553 | 10.30879 | 29820 ft | 394 kts | 201° |
| 2026-05-05 18:59 | 51.86431 | 10.27738 | 29816 ft | 393 kts | 201° |
| 2026-05-05 19:00 | 51.81318 | 10.24598 | 29818 ft | 393 kts | 200° |
| 2026-05-05 19:00 | 51.76202 | 10.21470 | 29824 ft | 393 kts | 200° |
| 2026-05-05 19:01 | 51.71081 | 10.18348 | 29814 ft | 393 kts | 200° |
| 2026-05-05 19:01 | 51.65957 | 10.15229 | 29815 ft | 393 kts | 200° |
| 2026-05-05 19:02 | 51.60834 | 10.12114 | 29804 ft | 394 kts | 200° |
| 2026-05-05 19:02 | 51.55736 | 10.09048 | 29803 ft | 394 kts | 199° |
| 2026-05-05 19:03 | 51.50586 | 10.05959 | 29798 ft | 396 kts | 200° |
| 2026-05-05 19:03 | 51.45419 | 10.02851 | 29806 ft | 397 kts | 199° |
| 2026-05-05 19:04 | 51.40240 | 9.99735 | 29806 ft | 398 kts | 199° |
| 2026-05-05 19:04 | 51.35045 | 9.96611 | 29798 ft | 400 kts | 199° |
| 2026-05-05 19:05 | 51.29827 | 9.93482 | 29800 ft | 401 kts | 199° |
| 2026-05-05 19:05 | 51.24592 | 9.90353 | 29797 ft | 402 kts | 199° |
| 2026-05-05 19:06 | 51.19335 | 9.87216 | 29802 ft | 404 kts | 199° |
| 2026-05-05 19:06 | 51.14066 | 9.84075 | 29798 ft | 405 kts | 198° |
| 2026-05-05 19:07 | 51.08772 | 9.80955 | 29795 ft | 407 kts | 198° |
| 2026-05-05 19:07 | 51.03454 | 9.77847 | 29798 ft | 408 kts | 198° |
| 2026-05-05 19:08 | 50.98118 | 9.74740 | 29798 ft | 409 kts | 198° |
| 2026-05-05 19:08 | 50.92770 | 9.71590 | 29807 ft | 410 kts | 198° |
| 2026-05-05 19:09 | 50.87409 | 9.68431 | 29807 ft | 412 kts | 198° |
| 2026-05-05 19:09 | 50.82032 | 9.65250 | 29803 ft | 413 kts | 198° |
| 2026-05-05 19:10 | 50.76644 | 9.62068 | 29798 ft | 414 kts | 198° |
| 2026-05-05 19:10 | 50.71233 | 9.58927 | 29804 ft | 415 kts | 198° |
| 2026-05-05 19:11 | 50.65816 | 9.55782 | 29810 ft | 415 kts | 197° |
| 2026-05-05 19:11 | 50.60392 | 9.52634 | 29807 ft | 416 kts | 197° |
| 2026-05-05 19:12 | 50.54977 | 9.49511 | 29816 ft | 413 kts | 197° |
| 2026-05-05 19:12 | 50.49599 | 9.46422 | 29813 ft | 410 kts | 197° |
| 2026-05-05 19:13 | 50.44283 | 9.43381 | 29811 ft | 408 kts | 197° |
| 2026-05-05 19:13 | 50.38926 | 9.40339 | 29813 ft | 406 kts | 197° |
| 2026-05-05 19:14 | 50.33667 | 9.37360 | 29816 ft | 404 kts | 197° |
| 2026-05-05 19:14 | 50.28392 | 9.34348 | 29820 ft | 403 kts | 197° |
| 2026-05-05 19:15 | 50.23098 | 9.31336 | 29817 ft | 402 kts | 197° |
| 2026-05-05 19:15 | 50.17927 | 9.28401 | 29810 ft | 401 kts | 197° |
| 2026-05-05 19:16 | 50.12691 | 9.25436 | 29816 ft | 400 kts | 197° |
| 2026-05-05 19:16 | 50.07469 | 9.22477 | 29820 ft | 399 kts | 197° |
| 2026-05-05 19:17 | 50.02253 | 9.19531 | 29828 ft | 398 kts | 197° |
| 2026-05-05 19:17 | 49.97034 | 9.16584 | 29823 ft | 400 kts | 197° |
| 2026-05-05 19:18 | 49.91773 | 9.13618 | 29825 ft | 404 kts | 197° |
| 2026-05-05 19:18 | 49.86467 | 9.10657 | 29830 ft | 407 kts | 197° |
| 2026-05-05 19:19 | 49.81130 | 9.07654 | 29837 ft | 410 kts | 198° |
| 2026-05-05 19:19 | 49.75761 | 9.04629 | 29825 ft | 412 kts | 197° |
| 2026-05-05 19:20 | 49.70348 | 9.01622 | 29830 ft | 414 kts | 197° |
| 2026-05-05 19:20 | 49.64869 | 8.98878 | 29827 ft | 414 kts | 192° |
| 2026-05-05 19:21 | 49.59229 | 8.97062 | 29829 ft | 414 kts | 188° |
| 2026-05-05 19:21 | 49.53541 | 8.95564 | 29829 ft | 415 kts | 187° |
| 2026-05-05 19:22 | 49.47836 | 8.94091 | 29830 ft | 416 kts | 187° |
| 2026-05-05 19:22 | 49.42133 | 8.92552 | 29824 ft | 416 kts | 188° |
| 2026-05-05 19:23 | 49.36440 | 8.90969 | 29831 ft | 416 kts | 188° |
| 2026-05-05 19:23 | 49.30740 | 8.89416 | 29825 ft | 416 kts | 188° |
| 2026-05-05 19:24 | 49.25047 | 8.87873 | 29825 ft | 415 kts | 188° |
| 2026-05-05 19:24 | 49.19382 | 8.86339 | 29323 ft | 408 kts | 188° |
| 2026-05-05 19:25 | 49.16584 | 8.85590 | 28321 ft | 406 kts | 189° |
| 2026-05-05 19:25 | 49.13821 | 8.84847 | 27641 ft | 400 kts | 189° |
| 2026-05-05 19:25 | 49.11102 | 8.84110 | 26929 ft | 395 kts | 189° |
| 2026-05-05 19:25 | 49.08408 | 8.83380 | 26207 ft | 391 kts | 189° |
| 2026-05-05 19:26 | 49.05748 | 8.82662 | 25496 ft | 387 kts | 189° |
| 2026-05-05 19:26 | 49.03106 | 8.81954 | 24790 ft | 383 kts | 189° |
| 2026-05-05 19:26 | 49.00491 | 8.81259 | 24105 ft | 379 kts | 189° |
| 2026-05-05 19:26 | 48.97941 | 8.80560 | 23465 ft | 376 kts | 190° |
| 2026-05-05 19:27 | 48.95447 | 8.79863 | 23544 ft | 355 kts | 190° |
| 2026-05-05 19:27 | 48.93020 | 8.79202 | 23585 ft | 359 kts | 189° |
| 2026-05-05 19:27 | 48.90532 | 8.78535 | 23606 ft | 367 kts | 189° |
| 2026-05-05 19:27 | 48.87993 | 8.77861 | 23618 ft | 374 kts | 189° |
| 2026-05-05 19:28 | 48.85394 | 8.77173 | 23628 ft | 384 kts | 189° |
| 2026-05-05 19:28 | 48.82735 | 8.76474 | 23641 ft | 392 kts | 189° |
| 2026-05-05 19:28 | 48.80016 | 8.75737 | 23642 ft | 400 kts | 190° |
| 2026-05-05 19:28 | 48.77302 | 8.74999 | 23643 ft | 393 kts | 189° |
| 2026-05-05 19:29 | 48.74629 | 8.74292 | 23720 ft | 389 kts | 189° |
| 2026-05-05 19:29 | 48.72008 | 8.73601 | 23800 ft | 376 kts | 189° |
| 2026-05-05 19:29 | 48.69470 | 8.72910 | 23831 ft | 365 kts | 190° |
| 2026-05-05 19:29 | 48.66997 | 8.72214 | 23826 ft | 358 kts | 190° |
| 2026-05-05 19:30 | 48.64565 | 8.71518 | 23826 ft | 352 kts | 190° |
| 2026-05-05 19:30 | 48.62171 | 8.70829 | 23826 ft | 350 kts | 190° |
| 2026-05-05 19:30 | 48.59743 | 8.70128 | 23833 ft | 360 kts | 190° |
| 2026-05-05 19:30 | 48.57252 | 8.69410 | 23842 ft | 369 kts | 190° |
| 2026-05-05 19:31 | 48.54704 | 8.68674 | 23849 ft | 376 kts | 190° |
| 2026-05-05 19:31 | 48.52115 | 8.67928 | 23854 ft | 382 kts | 190° |
| 2026-05-05 19:31 | 48.49517 | 8.67180 | 23859 ft | 377 kts | 190° |
| 2026-05-05 19:31 | 48.46966 | 8.66443 | 23855 ft | 370 kts | 190° |
| 2026-05-05 19:32 | 48.44464 | 8.65720 | 23846 ft | 363 kts | 190° |
| 2026-05-05 19:32 | 48.42001 | 8.65008 | 23845 ft | 358 kts | 191° |
| 2026-05-05 19:32 | 48.39603 | 8.64318 | 23852 ft | 353 kts | 190° |
| 2026-05-05 19:32 | 48.37211 | 8.63628 | 23846 ft | 348 kts | 190° |
| 2026-05-05 19:33 | 48.34798 | 8.62932 | 23848 ft | 359 kts | 190° |
| 2026-05-05 19:33 | 48.32365 | 8.62231 | 23353 ft | 356 kts | 190° |
| 2026-05-05 19:33 | 48.29952 | 8.61538 | 22695 ft | 352 kts | 191° |
| 2026-05-05 19:33 | 48.27558 | 8.60859 | 22070 ft | 348 kts | 191° |
| 2026-05-05 19:34 | 48.25224 | 8.60217 | 21462 ft | 344 kts | 189° |
| 2026-05-05 19:34 | 48.22891 | 8.60200 | 20217 ft | 336 kts | 170° |
| 2026-05-05 19:34 | 48.20733 | 8.61582 | 19135 ft | 346 kts | 149° |
| 2026-05-05 19:35 | 48.16791 | 8.65554 | 17997 ft | 341 kts | 150° |
| 2026-05-05 19:35 | 48.14775 | 8.67342 | 17268 ft | 329 kts | 154° |
| 2026-05-05 19:35 | 48.12754 | 8.68927 | 16391 ft | 323 kts | 157° |
| 2026-05-05 19:35 | 48.10792 | 8.70325 | 16106 ft | 303 kts | 159° |
| 2026-05-05 19:36 | 48.08917 | 8.71589 | 15997 ft | 287 kts | 160° |
| 2026-05-05 19:36 | 48.07137 | 8.72753 | 15965 ft | 275 kts | 161° |
| 2026-05-05 19:36 | 48.05359 | 8.73868 | 15794 ft | 283 kts | 162° |
| 2026-05-05 19:36 | 48.03410 | 8.75063 | 15363 ft | 321 kts | 161° |
| 2026-05-05 19:37 | 48.01233 | 8.76390 | 15007 ft | 354 kts | 161° |
| 2026-05-05 19:37 | 47.98944 | 8.77813 | 14735 ft | 348 kts | 161° |
| 2026-05-05 19:37 | 47.96799 | 8.79186 | 14753 ft | 324 kts | 161° |
| 2026-05-05 19:37 | 47.94742 | 8.80491 | 14774 ft | 320 kts | 161° |
| 2026-05-05 19:38 | 47.92656 | 8.81798 | 14863 ft | 332 kts | 161° |
| 2026-05-05 19:38 | 47.90464 | 8.83162 | 14962 ft | 350 kts | 161° |
| 2026-05-05 19:38 | 47.88951 | 8.84112 | 15003 ft | 363 kts | 160° |
| 2026-05-05 19:38 | 47.86573 | 8.85605 | 14975 ft | 371 kts | 160° |
| 2026-05-05 19:39 | 47.84185 | 8.87114 | 14360 ft | 373 kts | 160° |
| 2026-05-05 19:39 | 47.81830 | 8.88613 | 14070 ft | 361 kts | 160° |
| 2026-05-05 19:39 | 47.79566 | 8.90051 | 13772 ft | 346 kts | 161° |
| 2026-05-05 19:39 | 47.77390 | 8.91424 | 13505 ft | 332 kts | 161° |
| 2026-05-05 19:40 | 47.75301 | 8.92744 | 13202 ft | 321 kts | 161° |
| 2026-05-05 19:40 | 47.73280 | 8.94000 | 13036 ft | 307 kts | 162° |
| 2026-05-05 19:40 | 47.71356 | 8.95189 | 12985 ft | 292 kts | 162° |
| 2026-05-05 19:40 | 47.69534 | 8.96318 | 12984 ft | 277 kts | 162° |
| 2026-05-05 19:41 | 47.67782 | 8.97410 | 12608 ft | 275 kts | 162° |
| 2026-05-05 19:41 | 47.65973 | 8.98524 | 12155 ft | 285 kts | 162° |
| 2026-05-05 19:41 | 47.64152 | 8.99629 | 12040 ft | 278 kts | 161° |
| 2026-05-05 19:41 | 47.62404 | 9.00703 | 12001 ft | 276 kts | 162° |
| 2026-05-05 19:42 | 47.60609 | 9.01782 | 12008 ft | 281 kts | 162° |
| 2026-05-05 19:42 | 47.58721 | 9.02364 | 12068 ft | 275 kts | 180° |
| 2026-05-05 19:42 | 47.56871 | 9.03018 | 12254 ft | 275 kts | 169° |
| 2026-05-05 19:42 | 47.54962 | 9.03723 | 11879 ft | 292 kts | 171° |
| 2026-05-05 19:43 | 47.52936 | 9.04160 | 11857 ft | 293 kts | 179° |
| 2026-05-05 19:43 | 47.50909 | 9.04441 | 11954 ft | 293 kts | 175° |
| 2026-05-05 19:43 | 47.48889 | 9.04963 | 11997 ft | 296 kts | 172° |
| 2026-05-05 19:43 | 47.46901 | 9.05814 | 12003 ft | 303 kts | 156° |
| 2026-05-05 19:44 | 47.45260 | 9.07823 | 12024 ft | 314 kts | 131° |
| 2026-05-05 19:44 | 47.44300 | 9.10716 | 12041 ft | 323 kts | 106° |
| 2026-05-05 19:44 | 47.43919 | 9.14009 | 12029 ft | 327 kts | 99° |
| 2026-05-05 19:44 | 47.43660 | 9.17367 | 12022 ft | 330 kts | 97° |
| 2026-05-05 19:45 | 47.43509 | 9.20759 | 12030 ft | 333 kts | 87° |
| 2026-05-05 19:45 | 47.44107 | 9.24058 | 12046 ft | 336 kts | 62° |
| 2026-05-05 19:45 | 47.45536 | 9.26754 | 12059 ft | 335 kts | 38° |
| 2026-05-05 19:45 | 47.47556 | 9.28417 | 12077 ft | 333 kts | 14° |
| 2026-05-05 19:46 | 47.49826 | 9.28773 | 12076 ft | 324 kts | 350° |
| 2026-05-05 19:46 | 47.51906 | 9.27782 | 12061 ft | 309 kts | 325° |
| 2026-05-05 19:46 | 47.53423 | 9.25688 | 12056 ft | 293 kts | 299° |
| 2026-05-05 19:46 | 47.54113 | 9.22876 | 12057 ft | 279 kts | 272° |
| 2026-05-05 19:47 | 47.53869 | 9.20065 | 11930 ft | 270 kts | 252° |
| 2026-05-05 19:47 | 47.53372 | 9.17423 | 11491 ft | 270 kts | 254° |
| 2026-05-05 19:47 | 47.53069 | 9.14684 | 11061 ft | 270 kts | 264° |
| 2026-05-05 19:47 | 47.53243 | 9.11919 | 10673 ft | 274 kts | 284° |
| 2026-05-05 19:48 | 47.53927 | 9.09361 | 10315 ft | 259 kts | 290° |
| 2026-05-05 19:48 | 47.54665 | 9.07015 | 10081 ft | 247 kts | 291° |
| 2026-05-05 19:48 | 47.55417 | 9.04748 | 9996 ft | 244 kts | 292° |
| 2026-05-05 19:48 | 47.56191 | 9.02489 | 9996 ft | 249 kts | 293° |
| 2026-05-05 19:49 | 47.56994 | 9.00192 | 9997 ft | 254 kts | 292° |
| 2026-05-05 19:49 | 47.57810 | 8.97850 | 10003 ft | 258 kts | 293° |
| 2026-05-05 19:49 | 47.58596 | 8.95571 | 9799 ft | 257 kts | 292° |
| 2026-05-05 19:49 | 47.59402 | 8.93209 | 9537 ft | 256 kts | 292° |
| 2026-05-05 19:50 | 47.60201 | 8.90866 | 9297 ft | 254 kts | 292° |
| 2026-05-05 19:50 | 47.60997 | 8.88535 | 9098 ft | 253 kts | 292° |
| 2026-05-05 19:50 | 47.61783 | 8.86239 | 9028 ft | 247 kts | 292° |
| 2026-05-05 19:50 | 47.62555 | 8.83983 | 9020 ft | 244 kts | 292° |
| 2026-05-05 19:51 | 47.63324 | 8.81767 | 9041 ft | 247 kts | 292° |
| 2026-05-05 19:51 | 47.64131 | 8.79464 | 9043 ft | 248 kts | 286° |
| 2026-05-05 19:51 | 47.64305 | 8.77005 | 9066 ft | 239 kts | 255° |
| 2026-05-05 19:51 | 47.63564 | 8.74931 | 9065 ft | 229 kts | 224° |
| 2026-05-05 19:52 | 47.62174 | 8.73900 | 9070 ft | 227 kts | 191° |
| 2026-05-05 19:52 | 47.60603 | 8.74252 | 9075 ft | 236 kts | 162° |
| 2026-05-05 19:52 | 47.59126 | 8.75372 | 8975 ft | 241 kts | 150° |
| 2026-05-05 19:52 | 47.58039 | 8.77329 | 8784 ft | 255 kts | 120° |
| 2026-05-05 19:53 | 47.57378 | 8.79780 | 8577 ft | 258 kts | 114° |
| 2026-05-05 19:53 | 47.56797 | 8.82297 | 8357 ft | 259 kts | 112° |
| 2026-05-05 19:53 | 47.56221 | 8.84833 | 8120 ft | 261 kts | 111° |
| 2026-05-05 19:53 | 47.55611 | 8.87360 | 7866 ft | 260 kts | 120° |
| 2026-05-05 19:54 | 47.54457 | 8.89340 | 7528 ft | 254 kts | 151° |
| 2026-05-05 19:54 | 47.52865 | 8.90458 | 7147 ft | 254 kts | 163° |
| 2026-05-05 19:54 | 47.51198 | 8.91374 | 6692 ft | 258 kts | 165° |
| 2026-05-05 19:54 | 47.49537 | 8.92226 | 6195 ft | 239 kts | 166° |
| 2026-05-05 19:55 | 47.48016 | 8.92702 | 5582 ft | 216 kts | 189° |
| 2026-05-05 19:55 | 47.46678 | 8.91873 | 5298 ft | 203 kts | 225° |
| 2026-05-05 19:55 | 47.46100 | 8.90199 | 5287 ft | 177 kts | 266° |
| 2026-05-05 19:55 | 47.46494 | 8.88512 | 5304 ft | 181 kts | 306° |
| 2026-05-05 19:56 | 47.46988 | 8.86937 | 5380 ft | 166 kts | 273° |
| 2026-05-05 19:56 | 47.46837 | 8.85278 | 5308 ft | 163 kts | 245° |
| 2026-05-05 19:56 | 47.46208 | 8.83827 | 5287 ft | 173 kts | 236° |
| 2026-05-05 19:56 | 47.45458 | 8.82354 | 5113 ft | 185 kts | 233° |
| 2026-05-05 19:57 | 47.44688 | 8.80771 | 4908 ft | 193 kts | 244° |
| 2026-05-05 19:57 | 47.44305 | 8.78943 | 4667 ft | 179 kts | 268° |
| 2026-05-05 19:57 | 47.44312 | 8.77124 | 4404 ft | 176 kts | 270° |
| 2026-05-05 19:57 | 47.44376 | 8.75361 | 4138 ft | 173 kts | 271° |
| 2026-05-05 19:58 | 47.44481 | 8.73601 | 3869 ft | 171 kts | 272° |
| 2026-05-05 19:58 | 47.44603 | 8.71831 | 3628 ft | 173 kts | 273° |
| 2026-05-05 19:58 | 47.44737 | 8.70025 | 3403 ft | 180 kts | 273° |
| 2026-05-05 19:58 | 47.44870 | 8.68169 | 3125 ft | 187 kts | 273° |
| 2026-05-05 19:59 | 47.45002 | 8.66245 | 2840 ft | 187 kts | 273° |
| 2026-05-05 19:59 | 47.45126 | 8.64488 | 2579 ft | 158 kts | 272° |
| 2026-05-05 19:59 | 47.45231 | 8.63043 | 2352 ft | 130 kts | 275° |
| 2026-05-05 19:59 | 47.45334 | 8.61795 | 2191 ft | 116 kts | 275° |
| 2026-05-05 20:00 | 47.45433 | 8.60637 | 1985 ft | 110 kts | 278° |
| 2026-05-05 20:00 | 47.45506 | 8.59377 | 1845 ft | 125 kts | 272° |
| 2026-05-05 20:00 | 47.45610 | 8.58186 | 1650 ft | 116 kts | 276° |
| 2026-05-05 20:00 | 47.45796 | 8.57010 | 1590 ft | 118 kts | 266° |